Time;durP1;ratioP1;P1;durP2;ratioP2;P2;SDS_P1;SDS_P2;PMS_P1;PMS_P2;Temp;Humidity;BMP_temperature;BMP_pressure;BME280_temperature;BME280_humidity;BME280_pressure;Samples;Min_cycle;Max_cycle;Signal;HPM_P1;HPM_P2
2022/10/18 00:00:33;;;;;;;61.78;18.23;;;12.60;99.90;;;;;;6277119;22;20027;-82
2022/10/18 00:02:59;;;;;;;30.85;17.40;;;12.60;99.90;;;;;;6276799;22;20012;-82
2022/10/18 00:05:24;;;;;;;80.80;18.77;;;12.60;99.90;;;;;;6250097;22;20020;-81
2022/10/18 00:07:50;;;;;;;146.18;22.42;;;12.60;99.90;;;;;;6277294;22;20087;-82
2022/10/18 00:10:16;;;;;;;77.85;18.73;;;12.60;99.90;;;;;;6277436;22;20026;-82
2022/10/18 00:12:41;;;;;;;45.85;17.92;;;12.60;99.90;;;;;;6276869;22;20018;-81
2022/10/18 00:15:07;;;;;;;61.10;19.17;;;12.60;99.90;;;;;;6277027;22;20015;-82
2022/10/18 00:17:34;;;;;;;78.95;20.10;;;12.70;99.90;;;;;;6249885;22;20026;-82
2022/10/18 00:20:00;;;;;;;55.15;18.10;;;12.70;99.90;;;;;;6249856;22;20016;-82
2022/10/18 00:22:26;;;;;;;74.90;19.15;;;12.70;99.90;;;;;;6277167;22;20062;-81
2022/10/18 00:24:51;;;;;;;121.90;22.60;;;12.70;99.90;;;;;;6276989;22;20016;-81
2022/10/18 00:27:18;;;;;;;87.85;20.75;;;12.70;99.90;;;;;;6277146;22;20418;-81
2022/10/18 00:29:43;;;;;;;36.67;17.30;;;12.70;99.90;;;;;;6249768;22;20020;-81
2022/10/18 00:32:10;;;;;;;46.17;17.40;;;12.70;99.90;;;;;;6249847;22;20029;-81
2022/10/18 00:34:38;;;;;;;48.63;18.25;;;12.70;99.90;;;;;;6276839;22;20155;-81
2022/10/18 00:37:03;;;;;;;60.97;17.63;;;12.70;99.90;;;;;;6277286;22;20012;-81
2022/10/18 00:39:29;;;;;;;78.57;18.40;;;12.70;99.90;;;;;;6277088;22;20054;-82
2022/10/18 00:41:55;;;;;;;112.35;19.60;;;12.70;99.90;;;;;;6277314;22;20016;-81
2022/10/18 00:44:23;;;;;;;50.15;18.20;;;12.70;99.90;;;;;;6249690;22;20024;-81
2022/10/18 00:46:50;;;;;;;106.47;18.77;;;12.60;99.90;;;;;;6249797;22;20439;-82
2022/10/18 00:49:21;;;;;;;131.45;21.55;;;12.70;99.90;;;;;;6249682;22;20436;-81
2022/10/18 00:51:58;;;;;;;74.70;18.48;;;12.70;99.90;;;;;;6275254;22;20019;-82
2022/10/18 00:54:24;;;;;;;74.82;19.40;;;12.70;99.90;;;;;;6249423;22;20344;-82
2022/10/18 00:56:50;;;;;;;74.97;16.80;;;12.70;99.90;;;;;;6249551;22;20059;-81
2022/10/18 00:59:17;;;;;;;28.63;13.55;;;12.70;99.90;;;;;;6276886;22;20026;-81
2022/10/18 01:01:44;;;;;;;26.42;13.82;;;12.70;99.90;;;;;;6275327;22;20447;-82
2022/10/18 01:04:10;;;;;;;33.05;14.70;;;12.70;99.90;;;;;;6277034;22;20012;-81
2022/10/18 01:06:53;;;;;;;49.70;14.35;;;12.60;99.90;;;;;;6277086;22;20031;-81
2022/10/18 01:09:31;;;;;;;27.08;13.35;;;12.70;99.90;;;;;;6276684;22;20374;-82
2022/10/18 01:12:31;;;;;;;22.17;12.25;;;12.60;99.90;;;;;;6249688;22;20027;-82
2022/10/18 01:15:30;;;;;;;21.90;12.43;;;12.50;99.90;;;;;;6220286;22;20033;-82
2022/10/18 01:18:11;;;;;;;34.88;12.25;;;12.60;99.90;;;;;;6251545;22;20061;-81
2022/10/18 01:21:17;;;;;;;23.05;11.40;;;12.60;99.90;;;;;;6278729;22;20023;-81
2022/10/18 01:24:11;;;;;;;25.60;11.93;;;12.50;99.90;;;;;;6169454;22;20027;-82
2022/10/18 01:27:15;;;;;;;41.40;12.73;;;12.50;99.90;;;;;;6278973;22;20020;-81
2022/10/18 01:30:06;;;;;;;19.23;10.55;;;12.50;99.90;;;;;;6201092;22;20095;-81
2022/10/18 01:32:47;;;;;;;36.45;12.00;;;12.50;99.90;;;;;;6251480;22;20073;-81
2022/10/18 01:35:17;;;;;;;45.00;12.93;;;12.50;99.90;;;;;;6278926;22;20039;-81
2022/10/18 01:37:46;;;;;;;102.30;14.27;;;12.40;99.90;;;;;;6278522;22;20343;-81
2022/10/18 01:40:15;;;;;;;61.72;13.57;;;12.50;99.90;;;;;;6278689;22;20012;-81
2022/10/18 01:42:43;;;;;;;39.92;12.13;;;12.50;99.90;;;;;;6251326;22;20022;-81
2022/10/18 01:45:10;;;;;;;38.05;12.75;;;12.40;99.90;;;;;;6251334;22;20057;-81
2022/10/18 01:47:36;;;;;;;34.53;11.45;;;12.40;99.90;;;;;;6278898;22;20316;-81
2022/10/18 01:50:04;;;;;;;74.38;13.30;;;12.40;99.90;;;;;;6251228;22;20457;-81
2022/10/18 01:52:30;;;;;;;43.10;11.77;;;12.30;99.90;;;;;;6277950;22;20012;-81
2022/10/18 01:54:58;;;;;;;40.55;12.43;;;12.40;99.90;;;;;;6251072;22;20028;-81
2022/10/18 01:58:02;;;;;;;56.35;11.65;;;12.30;99.90;;;;;;6278276;22;20470;-81
2022/10/18 02:00:51;;;;;;;44.90;11.35;;;12.40;99.90;;;;;;6251256;22;20455;-81
2022/10/18 02:03:26;;;;;;;63.65;12.95;;;12.30;99.90;;;;;;6251185;22;20023;-81
2022/10/18 02:06:09;;;;;;;34.85;11.63;;;12.30;99.90;;;;;;6251141;22;20043;-81
2022/10/18 02:08:53;;;;;;;35.85;11.40;;;12.20;99.90;;;;;;6251605;22;20440;-81
2022/10/18 02:11:19;;;;;;;67.72;11.95;;;12.20;99.90;;;;;;6251123;22;20533;-81
2022/10/18 02:13:49;;;;;;;40.72;11.23;;;12.20;99.90;;;;;;6277862;22;20016;-81
2022/10/18 02:16:20;;;;;;;42.72;11.10;;;12.10;99.90;;;;;;6251139;22;20015;-81
2022/10/18 02:18:51;;;;;;;59.65;11.85;;;12.10;99.90;;;;;;6278482;22;20022;-81
2022/10/18 02:21:19;;;;;;;39.03;11.50;;;12.10;99.90;;;;;;6277919;22;20051;-81
2022/10/18 02:23:46;;;;;;;32.42;10.73;;;12.10;99.90;;;;;;6278347;22;20122;-82
2022/10/18 02:26:13;;;;;;;29.98;11.18;;;12.00;99.90;;;;;;6277992;22;20018;-81
2022/10/18 02:28:39;;;;;;;24.08;10.95;;;12.00;99.90;;;;;;6250942;22;20022;-81
2022/10/18 02:31:25;;;;;;;22.52;10.82;;;11.90;99.90;;;;;;6277976;22;20020;-81
2022/10/18 02:34:17;;;;;;;18.85;10.95;;;11.90;99.90;;;;;;6278354;22;20018;-81
2022/10/18 02:36:54;;;;;;;19.80;11.25;;;11.90;99.90;;;;;;6278351;22;20022;-81
2022/10/18 02:39:25;;;;;;;18.98;10.68;;;11.90;99.90;;;;;;6278238;22;20090;-81
2022/10/18 02:41:52;;;;;;;16.83;10.80;;;11.80;99.90;;;;;;6278135;22;20016;-81
2022/10/18 02:44:18;;;;;;;21.67;10.77;;;11.80;99.90;;;;;;6277906;22;20026;-81
2022/10/18 02:46:44;;;;;;;20.55;11.18;;;11.70;99.90;;;;;;6278183;22;20012;-81
2022/10/18 02:49:10;;;;;;;19.77;10.68;;;11.70;99.90;;;;;;6278161;22;20016;-81
2022/10/18 02:51:36;;;;;;;17.50;10.40;;;11.60;99.90;;;;;;6278119;22;20027;-81
2022/10/18 02:54:02;;;;;;;15.80;10.35;;;11.60;99.90;;;;;;6277230;22;20011;-82
2022/10/18 02:56:27;;;;;;;20.58;10.93;;;11.60;99.90;;;;;;6250760;22;20023;-82
2022/10/18 02:58:53;;;;;;;22.73;10.00;;;11.60;99.90;;;;;;6251120;22;20016;-81
2022/10/18 03:01:19;;;;;;;19.05;8.98;;;11.50;99.90;;;;;;6277739;22;20020;-81
2022/10/18 03:03:44;;;;;;;18.15;9.82;;;11.50;99.90;;;;;;6277800;22;20038;-81
2022/10/18 03:06:10;;;;;;;17.65;9.88;;;11.40;99.90;;;;;;6277959;22;20020;-81
2022/10/18 03:08:36;;;;;;;19.98;9.48;;;11.40;99.90;;;;;;6278004;22;20008;-81
2022/10/18 03:11:01;;;;;;;21.33;10.15;;;11.40;99.90;;;;;;6277615;22;20394;-81
2022/10/18 03:13:27;;;;;;;22.77;9.73;;;11.30;99.90;;;;;;6277736;22;20058;-81
2022/10/18 03:15:53;;;;;;;13.93;8.10;;;11.30;99.90;;;;;;6277947;22;20089;-81
2022/10/18 03:18:18;;;;;;;14.40;8.23;;;11.20;99.90;;;;;;6277471;22;20331;-81
2022/10/18 03:20:44;;;;;;;17.52;9.68;;;11.20;99.90;;;;;;6277823;22;20475;-81
2022/10/18 03:23:09;;;;;;;16.15;9.15;;;11.20;99.90;;;;;;6277641;22;20061;-81
2022/10/18 03:25:35;;;;;;;15.07;8.77;;;11.20;99.90;;;;;;6277798;22;20332;-81
2022/10/18 03:28:01;;;;;;;12.63;9.10;;;11.20;99.90;;;;;;6277798;22;20015;-81
2022/10/18 03:30:26;;;;;;;15.20;8.75;;;11.20;99.90;;;;;;6277664;22;20032;-82
2022/10/18 03:32:53;;;;;;;17.25;9.35;;;11.20;99.90;;;;;;6277658;22;20024;-82
2022/10/18 03:35:19;;;;;;;21.08;9.93;;;11.10;99.90;;;;;;6277630;22;20043;-81
2022/10/18 03:37:45;;;;;;;21.55;9.57;;;11.20;99.90;;;;;;6277256;22;20016;-81
2022/10/18 03:40:10;;;;;;;20.10;10.18;;;11.20;99.90;;;;;;6277298;22;20531;-82
2022/10/18 03:42:36;;;;;;;16.05;9.57;;;11.20;99.90;;;;;;6250172;22;20142;-81
2022/10/18 03:45:02;;;;;;;16.02;9.65;;;11.10;99.90;;;;;;6250232;22;20061;-82
2022/10/18 03:47:28;;;;;;;15.82;9.45;;;11.10;99.90;;;;;;6250164;22;20015;-81
2022/10/18 03:49:53;;;;;;;17.30;9.65;;;11.10;99.90;;;;;;6277566;22;20020;-81
2022/10/18 03:52:19;;;;;;;17.48;10.00;;;11.20;99.90;;;;;;6275646;22;20020;-81
2022/10/18 03:54:44;;;;;;;18.38;10.70;;;11.20;99.90;;;;;;6277279;22;20016;-81
2022/10/18 03:57:10;;;;;;;16.90;9.43;;;11.20;99.90;;;;;;6277497;22;20069;-81
2022/10/18 03:59:36;;;;;;;20.13;9.35;;;11.20;99.90;;;;;;6250169;22;20378;-81
2022/10/18 04:02:01;;;;;;;36.00;10.30;;;11.10;99.90;;;;;;6250149;22;20027;-81
2022/10/18 04:04:27;;;;;;;21.77;8.68;;;11.10;99.90;;;;;;6249953;22;20023;-82
2022/10/18 04:06:52;;;;;;;29.00;9.55;;;11.10;99.90;;;;;;6275599;22;20020;-80
2022/10/18 04:09:18;;;;;;;28.48;10.02;;;11.10;99.90;;;;;;6277360;22;20020;-80
2022/10/18 04:11:44;;;;;;;37.80;10.00;;;11.10;99.90;;;;;;6277422;22;20015;-80
2022/10/18 04:14:09;;;;;;;44.17;9.48;;;11.00;99.90;;;;;;6277310;22;20023;-81
2022/10/18 04:16:35;;;;;;;56.70;9.50;;;10.90;99.90;;;;;;6277352;22;20015;-81
2022/10/18 04:19:01;;;;;;;14.30;8.55;;;10.90;99.90;;;;;;6275496;22;20095;-81
2022/10/18 04:21:26;;;;;;;19.05;9.40;;;10.90;99.90;;;;;;6277346;22;20042;-81
2022/10/18 04:23:52;;;;;;;21.48;9.68;;;10.80;99.90;;;;;;6277352;22;20069;-81
2022/10/18 04:26:17;;;;;;;14.15;8.85;;;10.80;99.90;;;;;;6276960;22;20015;-81
2022/10/18 04:28:43;;;;;;;14.38;8.82;;;10.80;99.90;;;;;;6276870;22;20436;-81
2022/10/18 04:31:10;;;;;;;13.20;8.50;;;10.80;99.90;;;;;;6277439;22;20023;-81
2022/10/18 04:33:36;;;;;;;18.98;8.18;;;10.80;99.90;;;;;;6276912;22;20459;-81
2022/10/18 04:36:02;;;;;;;14.02;8.40;;;10.80;99.90;;;;;;6277320;22;20011;-81
2022/10/18 04:38:27;;;;;;;16.77;8.57;;;10.70;99.90;;;;;;6277268;22;20015;-81
2022/10/18 04:40:53;;;;;;;17.40;8.63;;;10.70;99.90;;;;;;6277242;22;20015;-81
2022/10/18 04:43:18;;;;;;;15.30;9.00;;;10.70;99.90;;;;;;6250221;22;20024;-82
2022/10/18 04:45:45;;;;;;;19.92;9.00;;;10.70;99.90;;;;;;6277516;22;20340;-82
2022/10/18 04:48:11;;;;;;;17.45;9.18;;;10.70;99.90;;;;;;6276220;22;20459;-82
2022/10/18 04:50:37;;;;;;;16.10;7.68;;;10.70;99.90;;;;;;6279345;22;20023;-82
2022/10/18 04:53:03;;;;;;;15.07;8.38;;;10.70;99.90;;;;;;6278603;22;20394;-82
2022/10/18 04:55:28;;;;;;;17.02;8.20;;;10.60;99.90;;;;;;6278830;22;20015;-82
2022/10/18 04:57:54;;;;;;;18.17;8.13;;;10.60;99.90;;;;;;6278979;22;20436;-82
2022/10/18 05:00:20;;;;;;;15.00;8.18;;;10.50;99.90;;;;;;6277185;22;20024;-82
2022/10/18 05:02:45;;;;;;;15.48;7.55;;;10.60;99.90;;;;;;6251731;22;20454;-82
2022/10/18 05:05:11;;;;;;;15.52;7.75;;;10.50;99.90;;;;;;6278909;22;20023;-81
2022/10/18 05:07:37;;;;;;;13.73;8.00;;;10.40;99.90;;;;;;6251707;22;20073;-81
2022/10/18 05:10:03;;;;;;;14.52;7.38;;;10.40;99.90;;;;;;6277281;22;20030;-82
2022/10/18 05:12:29;;;;;;;19.88;9.57;;;10.40;99.90;;;;;;6251564;22;20022;-82
2022/10/18 05:14:54;;;;;;;17.00;9.45;;;10.40;99.90;;;;;;6251717;22;20090;-82
2022/10/18 05:17:20;;;;;;;17.80;8.50;;;10.40;99.90;;;;;;6251631;22;20043;-82
2022/10/18 05:19:46;;;;;;;18.40;9.18;;;10.50;99.90;;;;;;6279084;22;20019;-81
2022/10/18 05:22:11;;;;;;;19.25;9.40;;;10.50;99.90;;;;;;6251613;22;20016;-81
2022/10/18 05:24:37;;;;;;;16.67;9.52;;;10.50;99.90;;;;;;6279150;22;20047;-81
2022/10/18 05:27:03;;;;;;;18.05;7.82;;;10.40;99.90;;;;;;6279012;22;20055;-81
2022/10/18 05:29:28;;;;;;;113.35;12.13;;;10.40;99.90;;;;;;6278999;22;20020;-81
2022/10/18 05:31:54;;;;;;;16.33;8.38;;;10.30;99.90;;;;;;6278833;22;20007;-81
2022/10/18 05:34:20;;;;;;;23.88;9.32;;;10.20;99.90;;;;;;6251465;22;20016;-81
2022/10/18 05:36:48;;;;;;;18.70;8.57;;;10.30;99.90;;;;;;6277045;22;20015;-81
2022/10/18 05:39:14;;;;;;;18.92;8.27;;;10.20;99.90;;;;;;6276982;22;20015;-81
2022/10/18 05:41:39;;;;;;;13.00;7.38;;;10.20;99.90;;;;;;6277048;22;20012;-81
2022/10/18 05:44:05;;;;;;;17.58;8.25;;;10.20;99.90;;;;;;6278476;22;20491;-81
2022/10/18 05:46:31;;;;;;;18.33;8.80;;;10.10;99.90;;;;;;6251368;22;20020;-81
2022/10/18 05:48:57;;;;;;;19.30;8.82;;;10.20;99.90;;;;;;6278738;22;20012;-82
2022/10/18 05:51:23;;;;;;;14.20;8.60;;;10.20;99.90;;;;;;6251093;22;20105;-82
2022/10/18 05:53:49;;;;;;;19.00;8.48;;;10.20;99.90;;;;;;6278282;22;20016;-82
2022/10/18 05:56:14;;;;;;;15.88;8.52;;;10.10;99.90;;;;;;6250890;22;20019;-82
2022/10/18 05:58:41;;;;;;;18.60;8.80;;;10.10;99.90;;;;;;6250926;22;20020;-82
2022/10/18 06:01:08;;;;;;;18.02;8.43;;;10.10;99.90;;;;;;6276229;22;20483;-82
2022/10/18 06:03:34;;;;;;;16.00;8.13;;;10.00;99.90;;;;;;6276382;22;20091;-82
2022/10/18 06:06:08;;;;;;;14.73;8.75;;;10.00;99.90;;;;;;6278161;22;20040;-82
2022/10/18 06:08:35;;;;;;;14.95;8.20;;;10.00;99.90;;;;;;6250268;22;20022;-82
2022/10/18 06:11:09;;;;;;;15.15;8.50;;;9.90;99.90;;;;;;6275177;22;20162;-82
2022/10/18 06:13:39;;;;;;;23.65;11.93;;;9.90;99.90;;;;;;6276386;22;20029;-82
2022/10/18 06:16:05;;;;;;;13.75;8.70;;;9.80;99.90;;;;;;6251338;22;20016;-82
2022/10/18 06:18:30;;;;;;;15.25;8.32;;;9.80;99.90;;;;;;6276504;22;20459;-82
2022/10/18 06:20:59;;;;;;;12.65;7.25;;;9.80;99.90;;;;;;6276475;22;20098;-84
2022/10/18 06:23:26;;;;;;;13.30;7.43;;;9.80;99.90;;;;;;6278338;22;20039;-83
2022/10/18 06:25:52;;;;;;;11.38;6.35;;;9.70;99.90;;;;;;6250840;22;20094;-83
2022/10/18 06:28:18;;;;;;;15.65;7.20;;;9.70;99.90;;;;;;6276191;22;20039;-84
2022/10/18 06:30:44;;;;;;;13.68;6.47;;;9.70;99.90;;;;;;6251009;22;20022;-83
2022/10/18 06:33:10;;;;;;;13.45;6.22;;;9.70;99.90;;;;;;6278184;22;20375;-81
2022/10/18 06:35:36;;;;;;;12.52;6.30;;;9.60;99.90;;;;;;6277778;22;20340;-83
2022/10/18 06:38:02;;;;;;;10.95;7.13;;;9.70;99.90;;;;;;6277904;22;20011;-83
2022/10/18 06:40:29;;;;;;;12.40;6.63;;;9.70;99.90;;;;;;6278135;22;20011;-83
2022/10/18 06:42:55;;;;;;;13.38;6.63;;;9.70;99.90;;;;;;6250785;22;20390;-82
2022/10/18 06:45:21;;;;;;;12.32;7.15;;;9.60;99.90;;;;;;6249517;22;20043;-83
2022/10/18 06:47:46;;;;;;;16.50;9.07;;;9.60;99.90;;;;;;6277854;22;20289;-82
2022/10/18 06:50:13;;;;;;;12.85;6.85;;;9.60;99.90;;;;;;6277400;22;20351;-82
2022/10/18 06:52:40;;;;;;;12.13;6.47;;;9.60;99.90;;;;;;6277333;22;20008;-82
2022/10/18 06:55:06;;;;;;;11.30;6.40;;;9.60;99.90;;;;;;6250009;22;20096;-81
2022/10/18 06:57:32;;;;;;;14.80;6.40;;;9.60;99.90;;;;;;6277750;22;20027;-82
2022/10/18 06:59:58;;;;;;;15.13;6.22;;;9.60;99.90;;;;;;6277464;22;20024;-82
2022/10/18 07:02:23;;;;;;;13.93;6.10;;;9.60;99.90;;;;;;6277722;22;20034;-81
2022/10/18 07:04:49;;;;;;;12.23;5.88;;;9.60;99.90;;;;;;6277441;22;20019;-82
2022/10/18 07:07:14;;;;;;;12.00;6.05;;;9.70;99.90;;;;;;6277572;22;20042;-82
2022/10/18 07:09:40;;;;;;;10.90;5.78;;;9.80;99.90;;;;;;6277513;22;20343;-82
2022/10/18 07:12:06;;;;;;;11.68;5.97;;;9.80;99.90;;;;;;6277090;22;20024;-82
2022/10/18 07:14:31;;;;;;;12.00;6.13;;;9.80;99.90;;;;;;6277590;22;20051;-82
2022/10/18 07:16:58;;;;;;;15.07;6.93;;;9.90;99.90;;;;;;6277572;22;20149;-81
2022/10/18 07:19:24;;;;;;;13.88;6.53;;;10.00;99.90;;;;;;6277437;22;20031;-81
2022/10/18 07:21:49;;;;;;;15.23;5.88;;;10.00;99.90;;;;;;6250120;22;20015;-81
2022/10/18 07:24:15;;;;;;;11.70;6.05;;;10.10;99.90;;;;;;6275640;22;20049;-81
2022/10/18 07:26:41;;;;;;;17.75;6.10;;;10.10;99.90;;;;;;6277175;22;20051;-81
2022/10/18 07:29:09;;;;;;;16.58;5.93;;;10.10;99.90;;;;;;6277479;22;20011;-81
2022/10/18 07:31:37;;;;;;;20.85;6.95;;;10.20;99.90;;;;;;6277462;22;20070;-82
2022/10/18 07:34:04;;;;;;;16.92;6.80;;;10.30;99.90;;;;;;6277251;22;20020;-81
2022/10/18 07:36:30;;;;;;;12.57;5.75;;;10.40;99.90;;;;;;6276649;22;20020;-81
2022/10/18 07:38:56;;;;;;;15.25;7.00;;;10.40;99.90;;;;;;6277202;22;20008;-81
2022/10/18 07:41:22;;;;;;;12.82;6.07;;;10.50;99.90;;;;;;6277136;22;20474;-81
2022/10/18 07:43:50;;;;;;;14.90;6.07;;;10.60;99.90;;;;;;6276746;22;20077;-81
2022/10/18 07:46:18;;;;;;;15.85;6.82;;;10.60;99.90;;;;;;6249646;22;20024;-80
2022/10/18 07:48:44;;;;;;;14.85;6.28;;;10.70;99.90;;;;;;6249771;22;20085;-80
2022/10/18 07:51:10;;;;;;;16.02;6.85;;;10.80;99.90;;;;;;6277206;22;20050;-81
2022/10/18 07:53:36;;;;;;;15.05;6.95;;;10.80;99.90;;;;;;6276734;22;20383;-80
2022/10/18 07:56:05;;;;;;;14.77;5.47;;;11.00;99.90;;;;;;6276684;22;20016;-81
2022/10/18 07:58:31;;;;;;;15.05;5.97;;;11.00;99.90;;;;;;6275280;22;20451;-81
2022/10/18 08:01:00;;;;;;;14.77;6.13;;;11.10;99.90;;;;;;6276948;22;20087;-81
2022/10/18 08:03:27;;;;;;;16.55;5.68;;;11.20;99.90;;;;;;6277177;22;20019;-80
2022/10/18 08:05:54;;;;;;;11.52;4.95;;;11.30;99.90;;;;;;6277211;22;20007;-80
2022/10/18 08:08:21;;;;;;;14.57;5.68;;;11.40;99.90;;;;;;6249571;22;20467;-81
2022/10/18 08:10:47;;;;;;;15.52;5.00;;;11.50;99.90;;;;;;6275220;22;20391;-80
2022/10/18 08:13:12;;;;;;;13.10;4.82;;;11.50;99.90;;;;;;6276949;22;20447;-80
2022/10/18 08:15:38;;;;;;;22.08;5.75;;;11.60;99.90;;;;;;6249583;22;20016;-80
2022/10/18 08:18:04;;;;;;;11.18;4.65;;;11.70;99.90;;;;;;6276942;22;20019;-80
2022/10/18 08:20:30;;;;;;;14.88;4.90;;;11.80;99.90;;;;;;6249675;22;20020;-80
2022/10/18 08:22:56;;;;;;;12.65;4.95;;;11.80;99.90;;;;;;6276398;22;20047;-79
2022/10/18 08:25:22;;;;;;;15.65;5.57;;;11.90;99.90;;;;;;6249569;22;20012;-79
2022/10/18 08:27:47;;;;;;;18.77;5.60;;;11.90;99.90;;;;;;6249634;22;20032;-79
2022/10/18 08:30:13;;;;;;;13.32;4.30;;;12.00;99.90;;;;;;6249528;22;20427;-79
2022/10/18 08:32:39;;;;;;;14.80;5.15;;;12.10;99.90;;;;;;6276634;22;20036;-79
2022/10/18 08:35:05;;;;;;;13.65;4.65;;;12.20;99.90;;;;;;6276487;22;20389;-79
2022/10/18 08:37:31;;;;;;;18.17;5.50;;;12.20;99.90;;;;;;6274594;22;20020;-80
2022/10/18 08:39:57;;;;;;;17.23;4.47;;;12.30;99.90;;;;;;6276963;22;20062;-79
2022/10/18 08:42:42;;;;;;;15.70;3.95;;;12.40;99.90;;;;;;6277083;22;20024;-80
2022/10/18 08:45:11;;;;;;;16.80;3.65;;;12.50;99.90;;;;;;6276938;22;20012;-80
2022/10/18 08:47:47;;;;;;;15.25;3.33;;;12.60;99.90;;;;;;6276888;22;20016;-80
2022/10/18 08:50:15;;;;;;;12.88;2.97;;;12.70;99.90;;;;;;6249153;22;20019;-80
2022/10/18 08:53:14;;;;;;;15.23;2.78;;;12.80;99.90;;;;;;6249174;22;20038;-80
2022/10/18 08:56:09;;;;;;;11.40;3.45;;;12.90;99.90;;;;;;6249290;22;20023;-80
2022/10/18 08:58:36;;;;;;;13.05;2.63;;;13.00;99.90;;;;;;6276808;22;20012;-79
2022/10/18 09:01:21;;;;;;;16.63;3.58;;;13.10;99.90;;;;;;6276443;22;20038;-79
2022/10/18 09:04:28;;;;;;;14.38;2.60;;;13.00;99.90;;;;;;6276918;22;20093;-79
2022/10/18 09:07:07;;;;;;;16.40;3.05;;;13.20;99.90;;;;;;6263994;22;20120;-79
2022/10/18 09:10:00;;;;;;;16.80;2.92;;;13.20;99.90;;;;;;6276455;22;20332;-80
2022/10/18 09:12:41;;;;;;;9.20;2.05;;;13.30;99.90;;;;;;6249402;22;20042;-80
2022/10/18 09:15:21;;;;;;;16.38;3.10;;;13.50;99.90;;;;;;6276862;22;20016;-80
2022/10/18 09:17:52;;;;;;;18.23;3.38;;;13.60;99.90;;;;;;6276974;22;20435;-80
2022/10/18 09:20:33;;;;;;;15.70;3.33;;;13.60;99.90;;;;;;6276764;22;20102;-80
2022/10/18 09:23:08;;;;;;;13.50;2.30;;;13.90;99.90;;;;;;6249328;22;20084;-80
2022/10/18 09:25:51;;;;;;;14.55;2.88;;;13.90;99.90;;;;;;6249390;22;20047;-80
2022/10/18 09:28:47;;;;;;;12.98;2.42;;;14.00;99.90;;;;;;6275046;22;20012;-80
2022/10/18 09:31:24;;;;;;;16.77;2.95;;;14.10;99.90;;;;;;6276691;22;20011;-80
2022/10/18 09:33:50;;;;;;;16.48;2.42;;;14.30;99.90;;;;;;6277255;22;20089;-80
2022/10/18 09:36:34;;;;;;;18.00;2.88;;;14.40;99.90;;;;;;6250900;22;20344;-80
2022/10/18 09:39:12;;;;;;;12.82;2.08;;;14.50;99.90;;;;;;6250838;22;20347;-80
2022/10/18 09:41:56;;;;;;;17.50;3.35;;;14.50;99.90;;;;;;6278679;22;20047;-80
2022/10/18 09:44:40;;;;;;;15.35;2.30;;;14.70;99.90;;;;;;6278472;22;20062;-80
2022/10/18 09:47:12;;;;;;;13.70;2.30;;;14.80;99.90;;;;;;6278477;22;20077;-81
2022/10/18 09:49:44;;;;;;;15.00;2.65;;;14.80;99.90;;;;;;6278524;22;20020;-81
2022/10/18 09:52:26;;;;;;;11.47;2.53;;;14.80;99.90;;;;;;6276134;22;20018;-80
2022/10/18 09:55:08;;;;;;;13.27;1.95;;;14.90;99.90;;;;;;6278275;22;20296;-80
2022/10/18 09:57:36;;;;;;;13.63;3.38;;;15.00;99.90;;;;;;6277778;22;20124;-80
2022/10/18 10:00:05;;;;;;;14.07;2.30;;;15.10;99.90;;;;;;6276419;22;20019;-80
2022/10/18 10:02:31;;;;;;;15.45;2.40;;;15.20;99.90;;;;;;6276431;22;20051;-79
2022/10/18 10:04:57;;;;;;;13.43;2.58;;;15.20;99.90;;;;;;6278269;22;20031;-80
2022/10/18 10:07:32;;;;;;;17.17;2.53;;;15.30;99.90;;;;;;6250327;22;20015;-79
2022/10/18 10:10:19;;;;;;;14.57;2.63;;;15.30;99.90;;;;;;6277949;22;20023;-79
2022/10/18 10:12:46;;;;;;;13.00;3.45;;;15.30;99.90;;;;;;6276280;22;20016;-80
2022/10/18 10:15:21;;;;;;;11.73;2.50;;;15.40;99.90;;;;;;6277854;22;20019;-79
2022/10/18 10:18:02;;;;;;;18.63;2.95;;;15.50;99.90;;;;;;6278138;22;20008;-79
2022/10/18 10:20:41;;;;;;;15.02;2.58;;;15.40;99.90;;;;;;6278140;22;20030;-79
2022/10/18 10:23:14;;;;;;;16.98;3.88;;;15.40;99.90;;;;;;6277883;22;20008;-80
2022/10/18 10:25:41;;;;;;;12.60;2.53;;;15.30;99.90;;;;;;6278167;22;20020;-79
2022/10/18 10:28:17;;;;;;;15.10;2.40;;;15.40;99.90;;;;;;6277557;22;20398;-79
2022/10/18 10:30:43;;;;;;;12.38;3.03;;;15.40;99.90;;;;;;6250676;22;20051;-80
2022/10/18 10:33:33;;;;;;;11.40;3.00;;;15.40;99.90;;;;;;6277494;22;20023;-79
2022/10/18 10:36:00;;;;;;;15.98;2.58;;;15.50;99.90;;;;;;6275748;22;20020;-80
2022/10/18 10:38:28;;;;;;;12.95;2.30;;;15.60;99.90;;;;;;6277566;22;20069;-80
2022/10/18 10:40:55;;;;;;;14.93;3.05;;;15.70;99.90;;;;;;6277940;22;20008;-79
2022/10/18 10:43:32;;;;;;;15.52;2.60;;;15.70;99.90;;;;;;6276006;22;20339;-80
2022/10/18 10:45:58;;;;;;;14.52;2.75;;;15.60;99.90;;;;;;6277755;22;20094;-80
2022/10/18 10:48:25;;;;;;;9.63;2.38;;;15.70;99.90;;;;;;6250430;22;20050;-79
2022/10/18 10:51:02;;;;;;;14.38;2.05;;;15.70;99.90;;;;;;6276564;22;20034;-80
2022/10/18 10:53:28;;;;;;;12.98;2.63;;;15.70;99.90;;;;;;6277908;22;20094;-86
2022/10/18 10:55:56;;;;;;;10.02;1.75;;;15.80;99.90;;;;;;6250214;22;20016;-84
2022/10/18 10:58:22;;;;;;;13.98;3.03;;;15.90;99.90;;;;;;6277863;22;20074;-84
2022/10/18 11:00:48;;;;;;;12.70;2.40;;;15.90;99.90;;;;;;6277767;22;20459;-88
2022/10/18 11:03:22;;;;;;;14.23;2.40;;;16.00;99.90;;;;;;6250274;22;20027;-92
2022/10/18 11:05:54;;;;;;;12.52;2.72;;;16.00;99.90;;;;;;6277799;22;20055;-86
2022/10/18 11:08:26;;;;;;;12.40;2.17;;;16.00;99.90;;;;;;6277763;22;20023;-90
2022/10/18 11:11:15;;;;;;;12.38;1.95;;;16.10;99.90;;;;;;6250343;22;20015;-85
2022/10/18 11:13:52;;;;;;;9.73;1.92;;;16.20;99.90;;;;;;6277197;22;20435;-83
2022/10/18 11:16:48;;;;;;;15.57;2.33;;;16.20;99.90;;;;;;6277212;22;20325;-84
2022/10/18 11:19:51;;;;;;;7.95;1.85;;;16.30;99.90;;;;;;6275795;22;20023;-82
2022/10/18 11:22:22;;;;;;;10.88;2.20;;;16.30;99.90;;;;;;6277578;22;20016;-81
2022/10/18 11:24:48;;;;;;;14.52;2.67;;;16.30;99.90;;;;;;6277293;22;20597;-80
2022/10/18 11:27:43;;;;;;;7.82;1.70;;;16.30;99.90;;;;;;6272779;22;20062;-78
2022/10/18 11:30:31;;;;;;;15.48;1.75;;;16.40;99.90;;;;;;6274860;22;20015;-87
2022/10/18 11:33:41;;;;;;;16.52;2.80;;;16.50;99.90;;;;;;6249617;22;20051;-88
2022/10/18 11:36:14;;;;;;;9.88;1.70;;;16.40;99.90;;;;;;6276827;22;20012;-86
2022/10/18 11:38:48;;;;;;;11.70;2.38;;;16.50;99.90;;;;;;6276936;22;20012;-92
2022/10/18 11:41:38;;;;;;;14.48;2.00;;;16.40;99.90;;;;;;6250095;22;20095;-85
2022/10/18 11:44:22;;;;;;;10.43;2.30;;;16.20;99.90;;;;;;6274456;22;20015;-80
2022/10/18 11:47:05;;;;;;;14.55;4.13;;;16.10;99.90;;;;;;6277108;22;20021;-80
2022/10/18 11:49:44;;;;;;;15.30;4.55;;;16.00;99.90;;;;;;6277319;22;20015;-82
2022/10/18 11:52:16;;;;;;;9.48;3.08;;;16.00;99.90;;;;;;6249767;22;20023;-82
2022/10/18 11:54:56;;;;;;;14.27;2.33;;;16.10;99.90;;;;;;6277145;22;20024;-80
2022/10/18 11:57:40;;;;;;;18.58;3.10;;;16.20;99.90;;;;;;6275367;22;20020;-78
2022/10/18 12:00:38;;;;;;;14.63;4.30;;;16.20;99.90;;;;;;6277035;22;20059;-82
2022/10/18 12:03:40;;;;;;;12.32;4.18;;;16.40;99.90;;;;;;6276212;22;20481;-80
2022/10/18 12:06:15;;;;;;;12.70;2.10;;;16.40;99.90;;;;;;6276944;22;20020;-80
2022/10/18 12:08:45;;;;;;;11.18;2.42;;;16.30;99.90;;;;;;6249600;22;20042;-81
2022/10/18 12:11:23;;;;;;;11.98;2.90;;;16.30;99.90;;;;;;6249672;22;20023;-80
2022/10/18 12:14:00;;;;;;;14.60;2.53;;;16.20;99.90;;;;;;6276883;22;20074;-80
2022/10/18 12:16:29;;;;;;;14.02;2.85;;;16.30;99.90;;;;;;6276960;22;20129;-81
2022/10/18 12:18:58;;;;;;;16.05;2.72;;;16.30;99.90;;;;;;6276782;22;20335;-81
2022/10/18 12:21:27;;;;;;;11.23;3.95;;;16.40;99.90;;;;;;6276598;22;20348;-81
2022/10/18 12:23:56;;;;;;;15.32;4.47;;;16.40;99.90;;;;;;6277133;22;20038;-80
2022/10/18 12:26:22;;;;;;;18.80;3.63;;;16.40;99.90;;;;;;6276898;22;20008;-80
2022/10/18 12:28:48;;;;;;;9.60;2.42;;;16.50;99.90;;;;;;6277052;22;20084;-79
2022/10/18 12:31:32;;;;;;;16.60;3.42;;;16.40;99.90;;;;;;6249508;22;20020;-79
2022/10/18 12:34:05;;;;;;;11.32;3.17;;;16.40;99.90;;;;;;6276933;22;20020;-80
2022/10/18 12:36:59;;;;;;;17.02;4.72;;;16.50;99.90;;;;;;6249414;22;20083;-80
2022/10/18 12:39:31;;;;;;;17.00;4.80;;;16.50;99.90;;;;;;6276679;22;20348;-80
2022/10/18 12:41:58;;;;;;;17.58;4.80;;;16.30;99.90;;;;;;6275181;22;20015;-81
2022/10/18 12:44:31;;;;;;;22.48;7.03;;;16.40;99.90;;;;;;6275075;22;20447;-81
2022/10/18 12:46:58;;;;;;;;;;;16.40;99.90;;;;;;6275593;22;20015;-82
2022/10/18 12:49:29;;;;;;;13.75;4.60;;;16.50;99.90;;;;;;6247538;22;19968;-80
2022/10/18 12:52:01;;;;;;;18.27;3.38;;;16.50;99.90;;;;;;6274362;22;20016;-83
2022/10/18 12:54:29;;;;;;;14.53;4.17;;;16.50;99.90;;;;;;6248995;22;20016;-79